Sprankle Mills, Pennsylvania
Current Conditions -  °F | °C
As of 10:53 PM on Sunday 23 Nov 2014 (Local Time) from KDUJ Reporting Station
Light Rain Light Rain  
Wind Chill: 41°   Ceiling: 1400
Heat Index: 47°   Visibility: 4mi
Dew Point: 44°   Wind: 15mph
Humidity: 90%   Direction: 130°SE
Pressure: 29.68"   Gusts: 23mph
Location:  41°N, 79.11°W
Report Text: KDUJ 240353Z AUTO 13013G20KT 4SM -RA BR BKN014 OVC060 08/07 A2968 RMK AO2 PK WND 14028/0259 PRESFR SLP054 P0006 T00830067
Loading
Personal Weather Stations






























Interactive Weather Map New forecast layout! Learn more

10-Day Weather Forecast

Advertisements
Track Severe Weather on mobile